sensor_id;sensor_type;location;lat;lon;timestamp;P1;durP1;ratioP1;P2;durP2;ratioP2
11893;SDS011;6006;49.696;8.662;2022-10-16T00:00:37;4.53;;;1.30;;
11893;SDS011;6006;49.696;8.662;2022-10-16T00:03:06;1.60;;;1.20;;
11893;SDS011;6006;49.696;8.662;2022-10-16T00:05:37;1.50;;;1.40;;
11893;SDS011;6006;49.696;8.662;2022-10-16T00:08:05;1.20;;;1.10;;
11893;SDS011;6006;49.696;8.662;2022-10-16T00:10:32;1.08;;;0.88;;
11893;SDS011;6006;49.696;8.662;2022-10-16T00:12:59;1.23;;;1.10;;
11893;SDS011;6006;49.696;8.662;2022-10-16T00:15:26;1.00;;;1.00;;
11893;SDS011;6006;49.696;8.662;2022-10-16T00:17:53;0.73;;;0.73;;
11893;SDS011;6006;49.696;8.662;2022-10-16T00:20:21;0.80;;;0.68;;
11893;SDS011;6006;49.696;8.662;2022-10-16T00:22:48;1.05;;;0.80;;
11893;SDS011;6006;49.696;8.662;2022-10-16T00:25:15;0.57;;;0.57;;
11893;SDS011;6006;49.696;8.662;2022-10-16T00:27:42;0.70;;;0.70;;
11893;SDS011;6006;49.696;8.662;2022-10-16T00:30:09;0.70;;;0.70;;
11893;SDS011;6006;49.696;8.662;2022-10-16T00:32:36;0.60;;;0.60;;
11893;SDS011;6006;49.696;8.662;2022-10-16T00:35:03;3.33;;;0.70;;
11893;SDS011;6006;49.696;8.662;2022-10-16T00:37:32;0.70;;;0.70;;
11893;SDS011;6006;49.696;8.662;2022-10-16T00:39:59;0.60;;;0.60;;
11893;SDS011;6006;49.696;8.662;2022-10-16T00:42:26;0.60;;;0.60;;
11893;SDS011;6006;49.696;8.662;2022-10-16T00:44:53;0.85;;;0.65;;
11893;SDS011;6006;49.696;8.662;2022-10-16T00:47:23;2.50;;;0.60;;
11893;SDS011;6006;49.696;8.662;2022-10-16T00:49:53;4.53;;;0.80;;
11893;SDS011;6006;49.696;8.662;2022-10-16T00:52:24;0.70;;;0.70;;
11893;SDS011;6006;49.696;8.662;2022-10-16T00:54:53;0.80;;;0.50;;
11893;SDS011;6006;49.696;8.662;2022-10-16T00:57:21;0.77;;;0.65;;
11893;SDS011;6006;49.696;8.662;2022-10-16T00:59:48;0.60;;;0.60;;
11893;SDS011;6006;49.696;8.662;2022-10-16T01:02:15;0.55;;;0.55;;
11893;SDS011;6006;49.696;8.662;2022-10-16T01:04:44;1.88;;;0.60;;
11893;SDS011;6006;49.696;8.662;2022-10-16T01:07:14;0.50;;;0.50;;
11893;SDS011;6006;49.696;8.662;2022-10-16T01:09:52;3.50;;;0.70;;
11893;SDS011;6006;49.696;8.662;2022-10-16T01:12:32;0.65;;;0.60;;
11893;SDS011;6006;49.696;8.662;2022-10-16T01:15:08;0.77;;;0.60;;
11893;SDS011;6006;49.696;8.662;2022-10-16T01:17:41;1.13;;;0.80;;
11893;SDS011;6006;49.696;8.662;2022-10-16T01:20:14;0.95;;;0.60;;
11893;SDS011;6006;49.696;8.662;2022-10-16T01:23:01;1.48;;;0.60;;
11893;SDS011;6006;49.696;8.662;2022-10-16T01:25:39;1.42;;;0.75;;
11893;SDS011;6006;49.696;8.662;2022-10-16T01:28:24;2.50;;;0.50;;
11893;SDS011;6006;49.696;8.662;2022-10-16T01:30:58;0.73;;;0.73;;
11893;SDS011;6006;49.696;8.662;2022-10-16T01:33:27;1.13;;;0.70;;
11893;SDS011;6006;49.696;8.662;2022-10-16T01:36:02;2.20;;;0.82;;
11893;SDS011;6006;49.696;8.662;2022-10-16T01:38:36;0.80;;;0.80;;
11893;SDS011;6006;49.696;8.662;2022-10-16T01:41:06;1.65;;;0.90;;
11893;SDS011;6006;49.696;8.662;2022-10-16T01:43:37;1.42;;;0.80;;
11893;SDS011;6006;49.696;8.662;2022-10-16T01:46:07;1.67;;;1.20;;
11893;SDS011;6006;49.696;8.662;2022-10-16T01:48:36;1.60;;;1.40;;
11893;SDS011;6006;49.696;8.662;2022-10-16T01:51:05;1.63;;;1.20;;
11893;SDS011;6006;49.696;8.662;2022-10-16T01:53:33;2.75;;;1.40;;
11893;SDS011;6006;49.696;8.662;2022-10-16T01:56:01;1.77;;;1.67;;
11893;SDS011;6006;49.696;8.662;2022-10-16T01:58:33;3.22;;;1.77;;
11893;SDS011;6006;49.696;8.662;2022-10-16T02:01:05;3.55;;;2.63;;
11893;SDS011;6006;49.696;8.662;2022-10-16T02:03:34;3.70;;;2.40;;
11893;SDS011;6006;49.696;8.662;2022-10-16T02:06:03;3.08;;;2.78;;
11893;SDS011;6006;49.696;8.662;2022-10-16T02:08:30;2.90;;;2.70;;
11893;SDS011;6006;49.696;8.662;2022-10-16T02:10:57;3.47;;;3.17;;
11893;SDS011;6006;49.696;8.662;2022-10-16T02:13:27;3.10;;;2.80;;
11893;SDS011;6006;49.696;8.662;2022-10-16T02:16:00;3.92;;;3.05;;
11893;SDS011;6006;49.696;8.662;2022-10-16T02:18:27;3.78;;;3.13;;
11893;SDS011;6006;49.696;8.662;2022-10-16T02:20:57;5.18;;;2.72;;
11893;SDS011;6006;49.696;8.662;2022-10-16T02:23:28;4.28;;;2.47;;
11893;SDS011;6006;49.696;8.662;2022-10-16T02:26:02;2.70;;;2.50;;
11893;SDS011;6006;49.696;8.662;2022-10-16T02:28:33;2.55;;;2.35;;
11893;SDS011;6006;49.696;8.662;2022-10-16T02:31:07;2.33;;;2.13;;
11893;SDS011;6006;49.696;8.662;2022-10-16T02:33:37;3.03;;;2.63;;
11893;SDS011;6006;49.696;8.662;2022-10-16T02:36:06;2.25;;;2.15;;
11893;SDS011;6006;49.696;8.662;2022-10-16T02:38:34;3.30;;;3.03;;
11893;SDS011;6006;49.696;8.662;2022-10-16T02:41:01;3.35;;;3.08;;
11893;SDS011;6006;49.696;8.662;2022-10-16T02:43:29;3.38;;;3.08;;
11893;SDS011;6006;49.696;8.662;2022-10-16T02:45:56;4.13;;;2.50;;
11893;SDS011;6006;49.696;8.662;2022-10-16T02:48:24;2.22;;;2.13;;
11893;SDS011;6006;49.696;8.662;2022-10-16T02:50:51;4.32;;;3.10;;
11893;SDS011;6006;49.696;8.662;2022-10-16T02:53:18;4.00;;;2.53;;
11893;SDS011;6006;49.696;8.662;2022-10-16T02:55:45;2.83;;;2.50;;
11893;SDS011;6006;49.696;8.662;2022-10-16T02:58:12;3.25;;;2.50;;
11893;SDS011;6006;49.696;8.662;2022-10-16T03:00:38;5.75;;;2.40;;
11893;SDS011;6006;49.696;8.662;2022-10-16T03:03:05;2.50;;;2.30;;
11893;SDS011;6006;49.696;8.662;2022-10-16T03:05:34;2.70;;;2.47;;
11893;SDS011;6006;49.696;8.662;2022-10-16T03:08:00;5.43;;;2.75;;
11893;SDS011;6006;49.696;8.662;2022-10-16T03:10:27;4.90;;;2.35;;
11893;SDS011;6006;49.696;8.662;2022-10-16T03:12:54;3.15;;;2.50;;
11893;SDS011;6006;49.696;8.662;2022-10-16T03:15:21;2.70;;;2.47;;
11893;SDS011;6006;49.696;8.662;2022-10-16T03:17:48;3.28;;;2.63;;
11893;SDS011;6006;49.696;8.662;2022-10-16T03:20:15;3.25;;;3.00;;
11893;SDS011;6006;49.696;8.662;2022-10-16T03:22:43;4.72;;;2.90;;
11893;SDS011;6006;49.696;8.662;2022-10-16T03:25:10;2.67;;;2.35;;
11893;SDS011;6006;49.696;8.662;2022-10-16T03:27:37;5.03;;;2.78;;
11893;SDS011;6006;49.696;8.662;2022-10-16T03:30:04;4.78;;;2.53;;
11893;SDS011;6006;49.696;8.662;2022-10-16T03:32:31;6.70;;;2.78;;
11893;SDS011;6006;49.696;8.662;2022-10-16T03:34:58;5.90;;;2.20;;
11893;SDS011;6006;49.696;8.662;2022-10-16T03:37:25;3.58;;;2.30;;
11893;SDS011;6006;49.696;8.662;2022-10-16T03:39:53;2.50;;;2.30;;
11893;SDS011;6006;49.696;8.662;2022-10-16T03:42:20;3.67;;;1.98;;
11893;SDS011;6006;49.696;8.662;2022-10-16T03:44:47;4.20;;;2.00;;
11893;SDS011;6006;49.696;8.662;2022-10-16T03:47:14;3.05;;;2.10;;
11893;SDS011;6006;49.696;8.662;2022-10-16T03:49:45;1.95;;;1.85;;
11893;SDS011;6006;49.696;8.662;2022-10-16T03:52:12;2.40;;;2.20;;
11893;SDS011;6006;49.696;8.662;2022-10-16T03:54:39;2.08;;;1.83;;
11893;SDS011;6006;49.696;8.662;2022-10-16T03:57:07;2.03;;;1.80;;
11893;SDS011;6006;49.696;8.662;2022-10-16T03:59:34;1.80;;;1.70;;
11893;SDS011;6006;49.696;8.662;2022-10-16T04:02:01;3.47;;;2.17;;
11893;SDS011;6006;49.696;8.662;2022-10-16T04:04:28;1.92;;;1.48;;
11893;SDS011;6006;49.696;8.662;2022-10-16T04:06:54;1.60;;;1.50;;
11893;SDS011;6006;49.696;8.662;2022-10-16T04:09:21;1.63;;;1.45;;
11893;SDS011;6006;49.696;8.662;2022-10-16T04:11:48;4.10;;;1.40;;
11893;SDS011;6006;49.696;8.662;2022-10-16T04:14:17;1.80;;;1.70;;
11893;SDS011;6006;49.696;8.662;2022-10-16T04:16:44;3.75;;;1.60;;
11893;SDS011;6006;49.696;8.662;2022-10-16T04:19:11;5.03;;;1.90;;
11893;SDS011;6006;49.696;8.662;2022-10-16T04:21:38;1.65;;;1.55;;
11893;SDS011;6006;49.696;8.662;2022-10-16T04:24:05;1.48;;;1.40;;
11893;SDS011;6006;49.696;8.662;2022-10-16T04:26:32;1.55;;;1.45;;
11893;SDS011;6006;49.696;8.662;2022-10-16T04:28:59;1.92;;;1.83;;
11893;SDS011;6006;49.696;8.662;2022-10-16T04:31:27;1.90;;;1.70;;
11893;SDS011;6006;49.696;8.662;2022-10-16T04:33:54;1.42;;;1.33;;
11893;SDS011;6006;49.696;8.662;2022-10-16T04:36:21;1.60;;;1.50;;
11893;SDS011;6006;49.696;8.662;2022-10-16T04:38:48;1.70;;;1.60;;
11893;SDS011;6006;49.696;8.662;2022-10-16T04:41:15;1.42;;;1.40;;
11893;SDS011;6006;49.696;8.662;2022-10-16T04:43:42;2.08;;;1.65;;
11893;SDS011;6006;49.696;8.662;2022-10-16T04:46:08;4.88;;;1.98;;
11893;SDS011;6006;49.696;8.662;2022-10-16T04:48:37;3.67;;;1.63;;
11893;SDS011;6006;49.696;8.662;2022-10-16T04:51:04;3.25;;;1.67;;
11893;SDS011;6006;49.696;8.662;2022-10-16T04:53:31;2.30;;;1.50;;
11893;SDS011;6006;49.696;8.662;2022-10-16T04:55:58;2.00;;;1.33;;
11893;SDS011;6006;49.696;8.662;2022-10-16T04:58:25;1.52;;;1.42;;
11893;SDS011;6006;49.696;8.662;2022-10-16T05:00:52;2.42;;;1.80;;
11893;SDS011;6006;49.696;8.662;2022-10-16T05:03:19;1.58;;;1.42;;
11893;SDS011;6006;49.696;8.662;2022-10-16T05:05:47;5.32;;;1.63;;
11893;SDS011;6006;49.696;8.662;2022-10-16T05:08:14;2.65;;;1.60;;
11893;SDS011;6006;49.696;8.662;2022-10-16T05:10:42;1.77;;;1.55;;
11893;SDS011;6006;49.696;8.662;2022-10-16T05:13:10;1.70;;;1.60;;
11893;SDS011;6006;49.696;8.662;2022-10-16T05:15:37;2.35;;;2.10;;
11893;SDS011;6006;49.696;8.662;2022-10-16T05:18:04;1.98;;;1.70;;
11893;SDS011;6006;49.696;8.662;2022-10-16T05:20:30;1.90;;;1.45;;
11893;SDS011;6006;49.696;8.662;2022-10-16T05:22:59;3.25;;;1.20;;
11893;SDS011;6006;49.696;8.662;2022-10-16T05:25:26;2.30;;;1.60;;
11893;SDS011;6006;49.696;8.662;2022-10-16T05:27:53;1.10;;;1.10;;
11893;SDS011;6006;49.696;8.662;2022-10-16T05:30:20;1.38;;;1.27;;
11893;SDS011;6006;49.696;8.662;2022-10-16T05:32:47;1.50;;;1.40;;
11893;SDS011;6006;49.696;8.662;2022-10-16T05:35:14;2.90;;;1.73;;
11893;SDS011;6006;49.696;8.662;2022-10-16T05:37:41;1.95;;;1.38;;
11893;SDS011;6006;49.696;8.662;2022-10-16T05:40:10;2.20;;;1.50;;
11893;SDS011;6006;49.696;8.662;2022-10-16T05:42:37;2.95;;;1.20;;
11893;SDS011;6006;49.696;8.662;2022-10-16T05:45:05;2.15;;;1.60;;
11893;SDS011;6006;49.696;8.662;2022-10-16T05:47:34;1.80;;;1.48;;
11893;SDS011;6006;49.696;8.662;2022-10-16T05:50:01;2.75;;;1.80;;
11893;SDS011;6006;49.696;8.662;2022-10-16T05:52:29;1.65;;;1.55;;
11893;SDS011;6006;49.696;8.662;2022-10-16T05:54:56;2.75;;;1.30;;
11893;SDS011;6006;49.696;8.662;2022-10-16T05:57:24;1.55;;;1.10;;
11893;SDS011;6006;49.696;8.662;2022-10-16T05:59:51;3.65;;;1.40;;
11893;SDS011;6006;49.696;8.662;2022-10-16T06:02:17;5.78;;;1.67;;
11893;SDS011;6006;49.696;8.662;2022-10-16T06:04:44;1.60;;;1.50;;
11893;SDS011;6006;49.696;8.662;2022-10-16T06:07:11;5.90;;;1.55;;
11893;SDS011;6006;49.696;8.662;2022-10-16T06:09:38;1.88;;;1.30;;
11893;SDS011;6006;49.696;8.662;2022-10-16T06:12:05;1.45;;;1.25;;
11893;SDS011;6006;49.696;8.662;2022-10-16T06:14:33;3.13;;;1.65;;
11893;SDS011;6006;49.696;8.662;2022-10-16T06:17:00;5.05;;;1.88;;
11893;SDS011;6006;49.696;8.662;2022-10-16T06:19:27;1.30;;;1.27;;
11893;SDS011;6006;49.696;8.662;2022-10-16T06:21:53;2.70;;;1.52;;
11893;SDS011;6006;49.696;8.662;2022-10-16T06:24:23;1.50;;;1.40;;
11893;SDS011;6006;49.696;8.662;2022-10-16T06:26:49;2.13;;;1.83;;
11893;SDS011;6006;49.696;8.662;2022-10-16T06:29:16;1.40;;;1.23;;
11893;SDS011;6006;49.696;8.662;2022-10-16T06:31:45;2.50;;;1.92;;
11893;SDS011;6006;49.696;8.662;2022-10-16T06:34:12;2.40;;;2.22;;
11893;SDS011;6006;49.696;8.662;2022-10-16T06:36:39;2.30;;;1.67;;
11893;SDS011;6006;49.696;8.662;2022-10-16T06:39:06;3.63;;;3.33;;
11893;SDS011;6006;49.696;8.662;2022-10-16T06:41:33;6.20;;;3.33;;
11893;SDS011;6006;49.696;8.662;2022-10-16T06:44:00;2.40;;;2.20;;
11893;SDS011;6006;49.696;8.662;2022-10-16T06:46:27;1.90;;;1.70;;
11893;SDS011;6006;49.696;8.662;2022-10-16T06:48:55;2.47;;;2.25;;
11893;SDS011;6006;49.696;8.662;2022-10-16T06:51:23;3.67;;;2.70;;
11893;SDS011;6006;49.696;8.662;2022-10-16T06:53:51;4.50;;;2.20;;
11893;SDS011;6006;49.696;8.662;2022-10-16T06:56:19;6.32;;;2.65;;
11893;SDS011;6006;49.696;8.662;2022-10-16T06:58:47;3.55;;;2.53;;
11893;SDS011;6006;49.696;8.662;2022-10-16T07:01:15;4.72;;;2.25;;
11893;SDS011;6006;49.696;8.662;2022-10-16T07:03:43;5.50;;;3.00;;
11893;SDS011;6006;49.696;8.662;2022-10-16T07:06:13;2.65;;;2.55;;
11893;SDS011;6006;49.696;8.662;2022-10-16T07:08:42;2.30;;;2.13;;
11893;SDS011;6006;49.696;8.662;2022-10-16T07:11:10;4.18;;;2.00;;
11893;SDS011;6006;49.696;8.662;2022-10-16T07:13:40;1.73;;;1.63;;
11893;SDS011;6006;49.696;8.662;2022-10-16T07:16:08;2.63;;;1.60;;
11893;SDS011;6006;49.696;8.662;2022-10-16T07:18:36;2.15;;;2.03;;
11893;SDS011;6006;49.696;8.662;2022-10-16T07:21:05;6.05;;;1.90;;
11893;SDS011;6006;49.696;8.662;2022-10-16T07:23:34;7.75;;;2.05;;
11893;SDS011;6006;49.696;8.662;2022-10-16T07:26:01;4.18;;;2.30;;
11893;SDS011;6006;49.696;8.662;2022-10-16T07:28:29;2.80;;;1.60;;
11893;SDS011;6006;49.696;8.662;2022-10-16T07:30:59;1.75;;;1.63;;
11893;SDS011;6006;49.696;8.662;2022-10-16T07:33:27;1.73;;;1.60;;
11893;SDS011;6006;49.696;8.662;2022-10-16T07:35:54;2.92;;;2.10;;
11893;SDS011;6006;49.696;8.662;2022-10-16T07:38:21;4.30;;;3.05;;
11893;SDS011;6006;49.696;8.662;2022-10-16T07:40:55;4.80;;;4.20;;
11893;SDS011;6006;49.696;8.662;2022-10-16T07:43:23;11.38;;;6.75;;
11893;SDS011;6006;49.696;8.662;2022-10-16T07:45:50;7.45;;;5.07;;
11893;SDS011;6006;49.696;8.662;2022-10-16T07:48:17;4.72;;;4.20;;
11893;SDS011;6006;49.696;8.662;2022-10-16T07:50:44;2.63;;;2.42;;
11893;SDS011;6006;49.696;8.662;2022-10-16T07:53:11;3.85;;;1.90;;
11893;SDS011;6006;49.696;8.662;2022-10-16T07:55:38;3.65;;;2.53;;
11893;SDS011;6006;49.696;8.662;2022-10-16T07:58:06;3.53;;;2.90;;
11893;SDS011;6006;49.696;8.662;2022-10-16T08:00:33;2.47;;;1.77;;
11893;SDS011;6006;49.696;8.662;2022-10-16T08:03:01;4.80;;;2.70;;
11893;SDS011;6006;49.696;8.662;2022-10-16T08:05:29;2.78;;;2.47;;
11893;SDS011;6006;49.696;8.662;2022-10-16T08:07:57;2.53;;;1.90;;
11893;SDS011;6006;49.696;8.662;2022-10-16T08:10:25;5.78;;;2.33;;
11893;SDS011;6006;49.696;8.662;2022-10-16T08:12:53;2.75;;;2.08;;
11893;SDS011;6006;49.696;8.662;2022-10-16T08:15:22;2.03;;;1.88;;
11893;SDS011;6006;49.696;8.662;2022-10-16T08:17:55;2.30;;;2.08;;
11893;SDS011;6006;49.696;8.662;2022-10-16T08:20:23;4.15;;;2.33;;
11893;SDS011;6006;49.696;8.662;2022-10-16T08:22:50;3.67;;;2.15;;
11893;SDS011;6006;49.696;8.662;2022-10-16T08:25:17;3.17;;;2.25;;
11893;SDS011;6006;49.696;8.662;2022-10-16T08:27:44;1.70;;;1.60;;
11893;SDS011;6006;49.696;8.662;2022-10-16T08:30:11;1.85;;;1.42;;
11893;SDS011;6006;49.696;8.662;2022-10-16T08:32:39;1.42;;;1.30;;
11893;SDS011;6006;49.696;8.662;2022-10-16T08:35:08;1.73;;;1.63;;
11893;SDS011;6006;49.696;8.662;2022-10-16T08:37:35;4.35;;;2.72;;
11893;SDS011;6006;49.696;8.662;2022-10-16T08:40:03;4.68;;;3.20;;
11893;SDS011;6006;49.696;8.662;2022-10-16T08:42:38;6.28;;;4.30;;
11893;SDS011;6006;49.696;8.662;2022-10-16T08:45:21;3.95;;;3.65;;
11893;SDS011;6006;49.696;8.662;2022-10-16T08:47:58;4.32;;;3.63;;
11893;SDS011;6006;49.696;8.662;2022-10-16T08:50:35;7.20;;;2.60;;
11893;SDS011;6006;49.696;8.662;2022-10-16T08:53:04;3.15;;;2.80;;
11893;SDS011;6006;49.696;8.662;2022-10-16T08:55:33;3.55;;;2.25;;
11893;SDS011;6006;49.696;8.662;2022-10-16T08:58:09;3.38;;;2.42;;
11893;SDS011;6006;49.696;8.662;2022-10-16T09:00:38;2.88;;;2.30;;
11893;SDS011;6006;49.696;8.662;2022-10-16T09:03:10;3.17;;;2.08;;
11893;SDS011;6006;49.696;8.662;2022-10-16T09:08:55;1.85;;;1.33;;
11893;SDS011;6006;49.696;8.662;2022-10-16T09:11:33;2.55;;;1.40;;
11893;SDS011;6006;49.696;8.662;2022-10-16T09:14:14;1.70;;;1.60;;
11893;SDS011;6006;49.696;8.662;2022-10-16T09:16:52;2.55;;;1.83;;
11893;SDS011;6006;49.696;8.662;2022-10-16T09:19:27;2.60;;;1.63;;
11893;SDS011;6006;49.696;8.662;2022-10-16T09:22:01;1.73;;;1.63;;
11893;SDS011;6006;49.696;8.662;2022-10-16T09:24:36;1.80;;;1.67;;
11893;SDS011;6006;49.696;8.662;2022-10-16T09:27:03;1.83;;;1.65;;
11893;SDS011;6006;49.696;8.662;2022-10-16T09:29:30;1.60;;;1.50;;
11893;SDS011;6006;49.696;8.662;2022-10-16T09:31:57;2.08;;;1.70;;
11893;SDS011;6006;49.696;8.662;2022-10-16T09:34:39;1.65;;;1.55;;
11893;SDS011;6006;49.696;8.662;2022-10-16T09:37:10;2.35;;;1.58;;
11893;SDS011;6006;49.696;8.662;2022-10-16T09:39:45;1.33;;;1.23;;
11893;SDS011;6006;49.696;8.662;2022-10-16T09:42:15;1.77;;;1.45;;
11893;SDS011;6006;49.696;8.662;2022-10-16T09:44:46;1.33;;;1.23;;
11893;SDS011;6006;49.696;8.662;2022-10-16T09:47:15;1.98;;;1.13;;
11893;SDS011;6006;49.696;8.662;2022-10-16T09:49:53;1.67;;;1.00;;
11893;SDS011;6006;49.696;8.662;2022-10-16T09:52:21;1.40;;;1.23;;
11893;SDS011;6006;49.696;8.662;2022-10-16T09:54:49;1.25;;;1.15;;
11893;SDS011;6006;49.696;8.662;2022-10-16T09:57:17;1.38;;;1.27;;
11893;SDS011;6006;49.696;8.662;2022-10-16T09:59:47;1.40;;;1.30;;
11893;SDS011;6006;49.696;8.662;2022-10-16T10:02:16;1.05;;;1.05;;
11893;SDS011;6006;49.696;8.662;2022-10-16T10:04:47;1.20;;;1.10;;
11893;SDS011;6006;49.696;8.662;2022-10-16T10:07:18;1.27;;;0.85;;
11893;SDS011;6006;49.696;8.662;2022-10-16T10:09:50;1.02;;;0.82;;
11893;SDS011;6006;49.696;8.662;2022-10-16T10:12:18;1.02;;;0.75;;
11893;SDS011;6006;49.696;8.662;2022-10-16T10:14:47;2.10;;;0.85;;
11893;SDS011;6006;49.696;8.662;2022-10-16T10:17:17;1.30;;;1.20;;
11893;SDS011;6006;49.696;8.662;2022-10-16T10:19:49;1.95;;;0.90;;
11893;SDS011;6006;49.696;8.662;2022-10-16T10:22:27;0.93;;;0.70;;
11893;SDS011;6006;49.696;8.662;2022-10-16T10:24:56;1.17;;;0.60;;
11893;SDS011;6006;49.696;8.662;2022-10-16T10:27:28;0.52;;;0.52;;
11893;SDS011;6006;49.696;8.662;2022-10-16T10:30:03;0.60;;;0.60;;
11893;SDS011;6006;49.696;8.662;2022-10-16T10:32:38;4.80;;;0.90;;
11893;SDS011;6006;49.696;8.662;2022-10-16T10:35:14;1.25;;;1.20;;
11893;SDS011;6006;49.696;8.662;2022-10-16T10:37:51;1.15;;;0.93;;
11893;SDS011;6006;49.696;8.662;2022-10-16T10:40:30;1.10;;;0.82;;
11893;SDS011;6006;49.696;8.662;2022-10-16T10:43:07;0.70;;;0.70;;
11893;SDS011;6006;49.696;8.662;2022-10-16T10:45:41;3.33;;;1.73;;
11893;SDS011;6006;49.696;8.662;2022-10-16T10:51:10;1.95;;;1.50;;
11893;SDS011;6006;49.696;8.662;2022-10-16T10:53:42;1.65;;;0.80;;
11893;SDS011;6006;49.696;8.662;2022-10-16T10:56:15;2.60;;;1.20;;
11893;SDS011;6006;49.696;8.662;2022-10-16T10:58:57;0.93;;;0.70;;
11893;SDS011;6006;49.696;8.662;2022-10-16T11:01:45;0.50;;;0.50;;
11893;SDS011;6006;49.696;8.662;2022-10-16T11:04:24;0.80;;;0.80;;
11893;SDS011;6006;49.696;8.662;2022-10-16T11:07:00;1.40;;;0.70;;
11893;SDS011;6006;49.696;8.662;2022-10-16T11:09:32;1.92;;;0.65;;
11893;SDS011;6006;49.696;8.662;2022-10-16T11:12:05;1.50;;;0.80;;
11893;SDS011;6006;49.696;8.662;2022-10-16T11:14:36;0.88;;;0.88;;
11893;SDS011;6006;49.696;8.662;2022-10-16T11:17:10;1.48;;;0.85;;
11893;SDS011;6006;49.696;8.662;2022-10-16T11:19:40;1.60;;;1.10;;
11893;SDS011;6006;49.696;8.662;2022-10-16T11:22:12;1.45;;;0.70;;
11893;SDS011;6006;49.696;8.662;2022-10-16T11:24:47;0.70;;;0.70;;
11893;SDS011;6006;49.696;8.662;2022-10-16T11:27:19;1.05;;;1.05;;
11893;SDS011;6006;49.696;8.662;2022-10-16T11:29:50;1.00;;;1.00;;
11893;SDS011;6006;49.696;8.662;2022-10-16T11:32:24;2.05;;;0.80;;
11893;SDS011;6006;49.696;8.662;2022-10-16T11:34:57;2.65;;;1.10;;
11893;SDS011;6006;49.696;8.662;2022-10-16T11:37:27;0.88;;;0.88;;
11893;SDS011;6006;49.696;8.662;2022-10-16T11:40:09;1.27;;;0.82;;
11893;SDS011;6006;49.696;8.662;2022-10-16T11:42:46;2.47;;;0.93;;
11893;SDS011;6006;49.696;8.662;2022-10-16T11:45:23;1.17;;;1.02;;
11893;SDS011;6006;49.696;8.662;2022-10-16T11:47:57;0.93;;;0.93;;
11893;SDS011;6006;49.696;8.662;2022-10-16T11:50:29;2.70;;;1.20;;
11893;SDS011;6006;49.696;8.662;2022-10-16T11:53:01;1.30;;;1.20;;
11893;SDS011;6006;49.696;8.662;2022-10-16T11:55:36;2.20;;;1.10;;
11893;SDS011;6006;49.696;8.662;2022-10-16T11:58:05;1.58;;;1.30;;
11893;SDS011;6006;49.696;8.662;2022-10-16T12:00:39;2.00;;;1.40;;
11893;SDS011;6006;49.696;8.662;2022-10-16T12:03:12;2.35;;;1.10;;
11893;SDS011;6006;49.696;8.662;2022-10-16T12:05:51;1.55;;;1.10;;
11893;SDS011;6006;49.696;8.662;2022-10-16T12:08:24;2.15;;;1.35;;
11893;SDS011;6006;49.696;8.662;2022-10-16T12:10:53;2.55;;;1.50;;
11893;SDS011;6006;49.696;8.662;2022-10-16T12:13:32;2.40;;;1.30;;
11893;SDS011;6006;49.696;8.662;2022-10-16T12:16:07;1.40;;;1.30;;
11893;SDS011;6006;49.696;8.662;2022-10-16T12:18:47;2.90;;;1.30;;
11893;SDS011;6006;49.696;8.662;2022-10-16T12:21:15;0.98;;;0.98;;
11893;SDS011;6006;49.696;8.662;2022-10-16T12:23:47;0.98;;;0.98;;
11893;SDS011;6006;49.696;8.662;2022-10-16T12:26:25;1.30;;;1.20;;
11893;SDS011;6006;49.696;8.662;2022-10-16T12:28:53;1.38;;;0.80;;
11893;SDS011;6006;49.696;8.662;2022-10-16T12:31:21;1.67;;;1.20;;
11893;SDS011;6006;49.696;8.662;2022-10-16T12:33:55;1.90;;;1.20;;
11893;SDS011;6006;49.696;8.662;2022-10-16T12:36:27;1.60;;;1.30;;
11893;SDS011;6006;49.696;8.662;2022-10-16T12:38:56;1.95;;;1.20;;
11893;SDS011;6006;49.696;8.662;2022-10-16T12:41:26;2.90;;;1.33;;
11893;SDS011;6006;49.696;8.662;2022-10-16T12:43:55;1.95;;;1.23;;
11893;SDS011;6006;49.696;8.662;2022-10-16T12:46:36;1.17;;;1.08;;
11893;SDS011;6006;49.696;8.662;2022-10-16T12:49:06;3.58;;;1.38;;
11893;SDS011;6006;49.696;8.662;2022-10-16T12:51:47;1.27;;;1.17;;
11893;SDS011;6006;49.696;8.662;2022-10-16T12:54:14;3.90;;;1.42;;
11893;SDS011;6006;49.696;8.662;2022-10-16T12:56:47;1.67;;;1.40;;
11893;SDS011;6006;49.696;8.662;2022-10-16T12:59:22;1.80;;;1.55;;
11893;SDS011;6006;49.696;8.662;2022-10-16T13:02:03;2.40;;;1.13;;
11893;SDS011;6006;49.696;8.662;2022-10-16T13:05:02;1.42;;;1.20;;
11893;SDS011;6006;49.696;8.662;2022-10-16T13:07:47;2.03;;;1.27;;
11893;SDS011;6006;49.696;8.662;2022-10-16T13:10:22;2.45;;;1.70;;
11893;SDS011;6006;49.696;8.662;2022-10-16T13:13:05;1.30;;;1.30;;
11893;SDS011;6006;49.696;8.662;2022-10-16T13:15:50;1.52;;;1.42;;
11893;SDS011;6006;49.696;8.662;2022-10-16T13:18:35;2.92;;;1.30;;
11893;SDS011;6006;49.696;8.662;2022-10-16T13:21:16;1.85;;;1.40;;
11893;SDS011;6006;49.696;8.662;2022-10-16T13:23:52;1.23;;;1.10;;
11893;SDS011;6006;49.696;8.662;2022-10-16T13:26:26;1.10;;;1.10;;
11893;SDS011;6006;49.696;8.662;2022-10-16T13:29:02;1.40;;;1.40;;
11893;SDS011;6006;49.696;8.662;2022-10-16T13:31:29;4.30;;;1.85;;
11893;SDS011;6006;49.696;8.662;2022-10-16T13:33:57;2.65;;;1.35;;
11893;SDS011;6006;49.696;8.662;2022-10-16T13:36:26;1.95;;;1.20;;
11893;SDS011;6006;49.696;8.662;2022-10-16T13:39:01;1.30;;;1.20;;
11893;SDS011;6006;49.696;8.662;2022-10-16T13:41:37;1.52;;;1.42;;
11893;SDS011;6006;49.696;8.662;2022-10-16T13:44:07;1.73;;;1.20;;
11893;SDS011;6006;49.696;8.662;2022-10-16T13:46:40;3.83;;;1.33;;
11893;SDS011;6006;49.696;8.662;2022-10-16T13:49:12;4.97;;;1.60;;
11893;SDS011;6006;49.696;8.662;2022-10-16T13:51:40;3.15;;;1.40;;
11893;SDS011;6006;49.696;8.662;2022-10-16T13:54:09;2.80;;;1.50;;
11893;SDS011;6006;49.696;8.662;2022-10-16T13:56:38;3.80;;;1.63;;
11893;SDS011;6006;49.696;8.662;2022-10-16T13:59:22;4.57;;;1.30;;
11893;SDS011;6006;49.696;8.662;2022-10-16T14:01:50;3.92;;;1.25;;
11893;SDS011;6006;49.696;8.662;2022-10-16T14:04:20;5.78;;;1.67;;
11893;SDS011;6006;49.696;8.662;2022-10-16T14:06:49;3.63;;;1.50;;
11893;SDS011;6006;49.696;8.662;2022-10-16T14:09:20;2.50;;;1.48;;
11893;SDS011;6006;49.696;8.662;2022-10-16T14:11:50;1.50;;;1.40;;
11893;SDS011;6006;49.696;8.662;2022-10-16T14:14:20;1.77;;;1.38;;
11893;SDS011;6006;49.696;8.662;2022-10-16T14:16:48;2.97;;;1.58;;
11893;SDS011;6006;49.696;8.662;2022-10-16T14:19:18;6.22;;;1.95;;
11893;SDS011;6006;49.696;8.662;2022-10-16T14:21:47;3.55;;;1.70;;
11893;SDS011;6006;49.696;8.662;2022-10-16T14:24:22;3.28;;;1.90;;
11893;SDS011;6006;49.696;8.662;2022-10-16T14:26:52;4.78;;;1.88;;
11893;SDS011;6006;49.696;8.662;2022-10-16T14:29:23;5.75;;;2.08;;
11893;SDS011;6006;49.696;8.662;2022-10-16T14:31:54;7.78;;;2.15;;
11893;SDS011;6006;49.696;8.662;2022-10-16T14:34:23;5.35;;;1.90;;
11893;SDS011;6006;49.696;8.662;2022-10-16T14:36:55;2.42;;;1.95;;
11893;SDS011;6006;49.696;8.662;2022-10-16T14:39:22;2.58;;;1.80;;
11893;SDS011;6006;49.696;8.662;2022-10-16T14:41:52;3.45;;;1.83;;
11893;SDS011;6006;49.696;8.662;2022-10-16T14:44:26;6.45;;;3.33;;
11893;SDS011;6006;49.696;8.662;2022-10-16T14:46:55;5.82;;;2.45;;
11893;SDS011;6006;49.696;8.662;2022-10-16T14:49:24;2.40;;;2.00;;
11893;SDS011;6006;49.696;8.662;2022-10-16T14:51:53;7.88;;;2.63;;
11893;SDS011;6006;49.696;8.662;2022-10-16T14:54:20;6.78;;;2.35;;
11893;SDS011;6006;49.696;8.662;2022-10-16T14:56:47;9.43;;;3.45;;
11893;SDS011;6006;49.696;8.662;2022-10-16T14:59:17;4.10;;;3.67;;
11893;SDS011;6006;49.696;8.662;2022-10-16T15:01:51;4.18;;;2.95;;
11893;SDS011;6006;49.696;8.662;2022-10-16T15:04:18;4.00;;;2.17;;
11893;SDS011;6006;49.696;8.662;2022-10-16T15:06:44;7.25;;;2.88;;
11893;SDS011;6006;49.696;8.662;2022-10-16T15:09:11;2.65;;;2.45;;
11893;SDS011;6006;49.696;8.662;2022-10-16T15:11:38;5.22;;;2.95;;
11893;SDS011;6006;49.696;8.662;2022-10-16T15:14:05;4.05;;;2.20;;
11893;SDS011;6006;49.696;8.662;2022-10-16T15:16:34;5.43;;;2.83;;
11893;SDS011;6006;49.696;8.662;2022-10-16T15:19:02;2.75;;;2.38;;
11893;SDS011;6006;49.696;8.662;2022-10-16T15:21:30;4.25;;;2.30;;
11893;SDS011;6006;49.696;8.662;2022-10-16T15:23:59;3.42;;;1.80;;